Terminal Aerodrome Forecast
Issued by NWS Albany, NY

Home | Current Version | Previous Version | Text Only | Print | Product List | Glossary On
Versions: 1 2 3 4 5 6 7 8 9 10 11 12 13 14 15 16 17 18 19 20 21
000
FTUS41 KALY 050638 AAA
TAFPOU
TAF AMD
KPOU 050638Z 0507/0606 34007KT 4SM -SN OVC025
      TEMPO 0507/0511 2SM -SN OVC015
     FM051400 33008KT P6SM SCT025 BKN050
     FM051800 32007KT P6SM SCT050 BKN100
     FM052200 35006KT P6SM SCT100
     FM060200 34005KT P6SM SKC=

USA.gov is the U.S. government's official web portal to all federal, state and local government web resources and services.